sensor_id;sensor_type;location;lat;lon;timestamp;P1;durP1;ratioP1;P2;durP2;ratioP2
24859;SDS011;12936;52.006;4.350;2023-08-20T00:01:39;11.18;;;1.83;;
24859;SDS011;12936;52.006;4.350;2023-08-20T00:04:15;9.95;;;2.05;;
24859;SDS011;12936;52.006;4.350;2023-08-20T00:06:46;10.23;;;1.60;;
24859;SDS011;12936;52.006;4.350;2023-08-20T00:09:17;7.65;;;1.50;;
24859;SDS011;12936;52.006;4.350;2023-08-20T00:11:45;13.35;;;2.08;;
24859;SDS011;12936;52.006;4.350;2023-08-20T00:14:17;10.77;;;1.80;;
24859;SDS011;12936;52.006;4.350;2023-08-20T00:16:46;8.73;;;1.52;;
24859;SDS011;12936;52.006;4.350;2023-08-20T00:19:39;7.93;;;1.48;;
24859;SDS011;12936;52.006;4.350;2023-08-20T00:22:11;10.50;;;1.60;;
24859;SDS011;12936;52.006;4.350;2023-08-20T00:24:44;8.77;;;1.65;;
24859;SDS011;12936;52.006;4.350;2023-08-20T00:27:56;7.97;;;1.50;;
24859;SDS011;12936;52.006;4.350;2023-08-20T00:30:39;10.80;;;1.58;;
24859;SDS011;12936;52.006;4.350;2023-08-20T00:33:31;7.28;;;1.48;;
24859;SDS011;12936;52.006;4.350;2023-08-20T00:36:05;9.07;;;1.40;;
24859;SDS011;12936;52.006;4.350;2023-08-20T00:38:36;9.32;;;1.60;;
24859;SDS011;12936;52.006;4.350;2023-08-20T00:41:10;8.88;;;1.50;;
24859;SDS011;12936;52.006;4.350;2023-08-20T00:43:40;10.10;;;1.90;;
24859;SDS011;12936;52.006;4.350;2023-08-20T00:46:29;12.13;;;1.60;;
24859;SDS011;12936;52.006;4.350;2023-08-20T00:49:00;10.27;;;2.45;;
24859;SDS011;12936;52.006;4.350;2023-08-20T00:51:35;6.30;;;1.23;;
24859;SDS011;12936;52.006;4.350;2023-08-20T00:54:07;9.55;;;1.60;;
24859;SDS011;12936;52.006;4.350;2023-08-20T00:57:18;22.38;;;3.70;;
24859;SDS011;12936;52.006;4.350;2023-08-20T00:59:51;11.30;;;2.00;;
24859;SDS011;12936;52.006;4.350;2023-08-20T01:02:27;11.00;;;1.80;;
24859;SDS011;12936;52.006;4.350;2023-08-20T01:05:18;9.05;;;2.03;;
24859;SDS011;12936;52.006;4.350;2023-08-20T01:08:19;11.23;;;1.95;;
24859;SDS011;12936;52.006;4.350;2023-08-20T01:10:59;9.63;;;1.67;;
24859;SDS011;12936;52.006;4.350;2023-08-20T01:14:14;10.93;;;1.88;;
24859;SDS011;12936;52.006;4.350;2023-08-20T01:16:43;9.88;;;1.92;;
24859;SDS011;12936;52.006;4.350;2023-08-20T01:19:37;9.57;;;1.65;;
24859;SDS011;12936;52.006;4.350;2023-08-20T01:25:08;10.43;;;1.90;;
24859;SDS011;12936;52.006;4.350;2023-08-20T01:28:03;8.10;;;1.75;;
24859;SDS011;12936;52.006;4.350;2023-08-20T01:30:57;10.52;;;1.92;;
24859;SDS011;12936;52.006;4.350;2023-08-20T01:33:32;10.73;;;1.90;;
24859;SDS011;12936;52.006;4.350;2023-08-20T01:36:24;10.00;;;1.90;;
24859;SDS011;12936;52.006;4.350;2023-08-20T01:38:54;12.48;;;1.75;;
24859;SDS011;12936;52.006;4.350;2023-08-20T01:41:28;8.05;;;1.55;;
24859;SDS011;12936;52.006;4.350;2023-08-20T01:43:59;10.77;;;1.90;;
24859;SDS011;12936;52.006;4.350;2023-08-20T01:46:32;8.63;;;1.80;;
24859;SDS011;12936;52.006;4.350;2023-08-20T01:49:47;12.52;;;2.42;;
24859;SDS011;12936;52.006;4.350;2023-08-20T01:52:59;13.60;;;2.10;;
24859;SDS011;12936;52.006;4.350;2023-08-20T01:55:34;6.65;;;1.63;;
24859;SDS011;12936;52.006;4.350;2023-08-20T01:58:07;11.77;;;2.10;;
24859;SDS011;12936;52.006;4.350;2023-08-20T02:00:37;7.10;;;1.60;;
24859;SDS011;12936;52.006;4.350;2023-08-20T02:03:25;8.88;;;1.65;;
24859;SDS011;12936;52.006;4.350;2023-08-20T02:05:58;9.48;;;1.63;;
24859;SDS011;12936;52.006;4.350;2023-08-20T02:08:27;9.73;;;1.75;;
24859;SDS011;12936;52.006;4.350;2023-08-20T02:11:01;7.53;;;1.98;;
24859;SDS011;12936;52.006;4.350;2023-08-20T02:13:31;8.70;;;1.63;;
24859;SDS011;12936;52.006;4.350;2023-08-20T02:16:04;10.02;;;2.20;;
24859;SDS011;12936;52.006;4.350;2023-08-20T02:18:41;7.95;;;1.70;;
24859;SDS011;12936;52.006;4.350;2023-08-20T02:21:25;6.63;;;1.52;;
24859;SDS011;12936;52.006;4.350;2023-08-20T02:24:00;8.48;;;1.55;;
24859;SDS011;12936;52.006;4.350;2023-08-20T02:26:29;10.98;;;1.90;;
24859;SDS011;12936;52.006;4.350;2023-08-20T02:29:04;7.95;;;2.00;;
24859;SDS011;12936;52.006;4.350;2023-08-20T02:31:55;9.30;;;1.80;;
24859;SDS011;12936;52.006;4.350;2023-08-20T02:34:23;8.43;;;1.52;;
24859;SDS011;12936;52.006;4.350;2023-08-20T02:37:20;11.20;;;1.80;;
24859;SDS011;12936;52.006;4.350;2023-08-20T02:39:53;8.85;;;1.88;;
24859;SDS011;12936;52.006;4.350;2023-08-20T02:42:25;10.48;;;1.40;;
24859;SDS011;12936;52.006;4.350;2023-08-20T02:44:59;6.38;;;1.50;;
24859;SDS011;12936;52.006;4.350;2023-08-20T02:47:51;7.07;;;1.73;;
24859;SDS011;12936;52.006;4.350;2023-08-20T02:50:21;10.65;;;1.60;;
24859;SDS011;12936;52.006;4.350;2023-08-20T02:52:54;14.63;;;2.88;;
24859;SDS011;12936;52.006;4.350;2023-08-20T02:55:26;9.88;;;1.80;;
24859;SDS011;12936;52.006;4.350;2023-08-20T02:58:00;12.68;;;1.83;;
24859;SDS011;12936;52.006;4.350;2023-08-20T03:00:46;10.30;;;2.08;;
24859;SDS011;12936;52.006;4.350;2023-08-20T03:03:37;6.25;;;1.80;;
24859;SDS011;12936;52.006;4.350;2023-08-20T03:06:12;8.50;;;1.80;;
24859;SDS011;12936;52.006;4.350;2023-08-20T03:08:40;14.15;;;2.17;;
24859;SDS011;12936;52.006;4.350;2023-08-20T03:11:09;7.85;;;1.77;;
24859;SDS011;12936;52.006;4.350;2023-08-20T03:13:37;9.18;;;1.85;;
24859;SDS011;12936;52.006;4.350;2023-08-20T03:16:05;7.68;;;1.73;;
24859;SDS011;12936;52.006;4.350;2023-08-20T03:18:33;10.05;;;1.95;;
24859;SDS011;12936;52.006;4.350;2023-08-20T03:21:03;13.35;;;2.30;;
24859;SDS011;12936;52.006;4.350;2023-08-20T03:23:31;6.60;;;1.80;;
24859;SDS011;12936;52.006;4.350;2023-08-20T03:26:00;6.78;;;1.63;;
24859;SDS011;12936;52.006;4.350;2023-08-20T03:28:28;9.57;;;2.40;;
24859;SDS011;12936;52.006;4.350;2023-08-20T03:30:59;10.57;;;1.90;;
24859;SDS011;12936;52.006;4.350;2023-08-20T03:33:28;7.57;;;2.00;;
24859;SDS011;12936;52.006;4.350;2023-08-20T03:35:57;7.43;;;1.67;;
24859;SDS011;12936;52.006;4.350;2023-08-20T03:38:27;7.93;;;1.80;;
24859;SDS011;12936;52.006;4.350;2023-08-20T03:40:56;6.03;;;1.63;;
24859;SDS011;12936;52.006;4.350;2023-08-20T03:43:28;6.45;;;1.63;;
24859;SDS011;12936;52.006;4.350;2023-08-20T03:46:00;8.45;;;1.75;;
24859;SDS011;12936;52.006;4.350;2023-08-20T03:48:29;9.35;;;1.75;;
24859;SDS011;12936;52.006;4.350;2023-08-20T03:50:59;7.40;;;1.70;;
24859;SDS011;12936;52.006;4.350;2023-08-20T03:53:28;7.22;;;1.98;;
24859;SDS011;12936;52.006;4.350;2023-08-20T03:55:56;9.98;;;1.60;;
24859;SDS011;12936;52.006;4.350;2023-08-20T03:58:24;5.68;;;1.50;;
24859;SDS011;12936;52.006;4.350;2023-08-20T04:00:55;8.13;;;2.22;;
24859;SDS011;12936;52.006;4.350;2023-08-20T04:03:24;9.55;;;1.80;;
24859;SDS011;12936;52.006;4.350;2023-08-20T04:05:52;7.53;;;1.70;;
24859;SDS011;12936;52.006;4.350;2023-08-20T04:08:20;9.45;;;2.35;;
24859;SDS011;12936;52.006;4.350;2023-08-20T04:10:52;6.82;;;1.83;;
24859;SDS011;12936;52.006;4.350;2023-08-20T04:13:21;10.48;;;1.92;;
24859;SDS011;12936;52.006;4.350;2023-08-20T04:15:51;8.38;;;1.48;;
24859;SDS011;12936;52.006;4.350;2023-08-20T04:18:19;9.88;;;2.28;;
24859;SDS011;12936;52.006;4.350;2023-08-20T04:20:49;8.57;;;2.35;;
24859;SDS011;12936;52.006;4.350;2023-08-20T04:23:27;8.45;;;1.70;;
24859;SDS011;12936;52.006;4.350;2023-08-20T04:25:57;7.43;;;2.20;;
24859;SDS011;12936;52.006;4.350;2023-08-20T04:28:25;7.82;;;2.20;;
24859;SDS011;12936;52.006;4.350;2023-08-20T04:30:55;6.65;;;2.00;;
24859;SDS011;12936;52.006;4.350;2023-08-20T04:33:24;5.65;;;1.73;;
24859;SDS011;12936;52.006;4.350;2023-08-20T04:35:52;8.10;;;1.55;;
24859;SDS011;12936;52.006;4.350;2023-08-20T04:38:20;10.65;;;2.13;;
24859;SDS011;12936;52.006;4.350;2023-08-20T04:40:48;8.50;;;2.08;;
24859;SDS011;12936;52.006;4.350;2023-08-20T04:43:18;9.05;;;2.22;;
24859;SDS011;12936;52.006;4.350;2023-08-20T04:45:47;9.65;;;1.90;;
24859;SDS011;12936;52.006;4.350;2023-08-20T04:48:19;7.85;;;2.10;;
24859;SDS011;12936;52.006;4.350;2023-08-20T04:50:52;9.93;;;2.45;;
24859;SDS011;12936;52.006;4.350;2023-08-20T04:53:25;9.27;;;2.35;;
24859;SDS011;12936;52.006;4.350;2023-08-20T04:55:56;9.20;;;2.00;;
24859;SDS011;12936;52.006;4.350;2023-08-20T04:58:30;11.45;;;2.45;;
24859;SDS011;12936;52.006;4.350;2023-08-20T05:01:00;11.32;;;2.30;;
24859;SDS011;12936;52.006;4.350;2023-08-20T05:03:31;9.73;;;2.15;;
24859;SDS011;12936;52.006;4.350;2023-08-20T05:05:59;11.98;;;2.60;;
24859;SDS011;12936;52.006;4.350;2023-08-20T05:08:28;8.13;;;2.20;;
24859;SDS011;12936;52.006;4.350;2023-08-20T05:10:56;9.70;;;2.53;;
24859;SDS011;12936;52.006;4.350;2023-08-20T05:13:26;11.93;;;2.58;;
24859;SDS011;12936;52.006;4.350;2023-08-20T05:15:56;8.57;;;2.40;;
24859;SDS011;12936;52.006;4.350;2023-08-20T05:18:24;9.38;;;2.40;;
24859;SDS011;12936;52.006;4.350;2023-08-20T05:20:53;9.27;;;3.05;;
24859;SDS011;12936;52.006;4.350;2023-08-20T05:23:22;8.77;;;2.13;;
24859;SDS011;12936;52.006;4.350;2023-08-20T05:25:50;14.15;;;2.60;;
24859;SDS011;12936;52.006;4.350;2023-08-20T05:28:18;8.52;;;2.20;;
24859;SDS011;12936;52.006;4.350;2023-08-20T05:30:52;12.75;;;2.80;;
24859;SDS011;12936;52.006;4.350;2023-08-20T05:33:24;10.65;;;2.30;;
24859;SDS011;12936;52.006;4.350;2023-08-20T05:35:52;10.65;;;2.08;;
24859;SDS011;12936;52.006;4.350;2023-08-20T05:38:21;8.65;;;2.20;;
24859;SDS011;12936;52.006;4.350;2023-08-20T05:40:58;7.55;;;2.15;;
24859;SDS011;12936;52.006;4.350;2023-08-20T05:43:35;6.95;;;1.90;;
24859;SDS011;12936;52.006;4.350;2023-08-20T05:46:06;11.95;;;1.92;;
24859;SDS011;12936;52.006;4.350;2023-08-20T05:48:36;9.55;;;2.15;;
24859;SDS011;12936;52.006;4.350;2023-08-20T05:51:07;8.77;;;2.00;;
24859;SDS011;12936;52.006;4.350;2023-08-20T05:53:37;12.48;;;2.47;;
24859;SDS011;12936;52.006;4.350;2023-08-20T05:56:07;9.13;;;2.13;;
24859;SDS011;12936;52.006;4.350;2023-08-20T05:58:36;8.25;;;2.38;;
24859;SDS011;12936;52.006;4.350;2023-08-20T06:01:04;7.05;;;1.85;;
24859;SDS011;12936;52.006;4.350;2023-08-20T06:03:34;5.75;;;1.90;;
24859;SDS011;12936;52.006;4.350;2023-08-20T06:06:03;8.52;;;2.40;;
24859;SDS011;12936;52.006;4.350;2023-08-20T06:08:34;9.63;;;1.70;;
24859;SDS011;12936;52.006;4.350;2023-08-20T06:11:02;9.90;;;2.35;;
24859;SDS011;12936;52.006;4.350;2023-08-20T06:13:31;9.05;;;2.03;;
24859;SDS011;12936;52.006;4.350;2023-08-20T06:16:22;10.85;;;2.38;;
24859;SDS011;12936;52.006;4.350;2023-08-20T06:18:50;7.63;;;1.80;;
24859;SDS011;12936;52.006;4.350;2023-08-20T06:21:22;10.20;;;2.33;;
24859;SDS011;12936;52.006;4.350;2023-08-20T06:23:50;14.30;;;2.53;;
24859;SDS011;12936;52.006;4.350;2023-08-20T06:26:18;12.57;;;1.98;;
24859;SDS011;12936;52.006;4.350;2023-08-20T06:28:46;12.48;;;2.58;;
24859;SDS011;12936;52.006;4.350;2023-08-20T06:31:16;8.45;;;1.88;;
24859;SDS011;12936;52.006;4.350;2023-08-20T06:33:49;8.70;;;2.08;;
24859;SDS011;12936;52.006;4.350;2023-08-20T06:36:17;9.68;;;2.47;;
24859;SDS011;12936;52.006;4.350;2023-08-20T06:38:54;10.50;;;2.88;;
24859;SDS011;12936;52.006;4.350;2023-08-20T06:41:23;8.23;;;2.03;;
24859;SDS011;12936;52.006;4.350;2023-08-20T06:43:56;13.43;;;2.67;;
24859;SDS011;12936;52.006;4.350;2023-08-20T06:46:24;11.30;;;2.17;;
24859;SDS011;12936;52.006;4.350;2023-08-20T06:48:57;10.82;;;2.67;;
24859;SDS011;12936;52.006;4.350;2023-08-20T06:51:28;9.48;;;2.40;;
24859;SDS011;12936;52.006;4.350;2023-08-20T06:53:58;10.35;;;2.58;;
24859;SDS011;12936;52.006;4.350;2023-08-20T06:56:28;12.27;;;2.28;;
24859;SDS011;12936;52.006;4.350;2023-08-20T06:59:00;11.77;;;2.47;;
24859;SDS011;12936;52.006;4.350;2023-08-20T07:01:29;12.45;;;2.00;;
24859;SDS011;12936;52.006;4.350;2023-08-20T07:03:58;11.95;;;2.20;;
24859;SDS011;12936;52.006;4.350;2023-08-20T07:06:29;8.82;;;2.03;;
24859;SDS011;12936;52.006;4.350;2023-08-20T07:09:00;8.70;;;1.95;;
24859;SDS011;12936;52.006;4.350;2023-08-20T07:11:30;10.57;;;2.10;;
24859;SDS011;12936;52.006;4.350;2023-08-20T07:13:58;10.73;;;1.77;;
24859;SDS011;12936;52.006;4.350;2023-08-20T07:16:26;10.30;;;1.83;;
24859;SDS011;12936;52.006;4.350;2023-08-20T07:18:54;10.65;;;1.92;;
24859;SDS011;12936;52.006;4.350;2023-08-20T07:21:22;9.20;;;1.75;;
24859;SDS011;12936;52.006;4.350;2023-08-20T07:23:50;7.05;;;1.58;;
24859;SDS011;12936;52.006;4.350;2023-08-20T07:26:21;11.40;;;2.17;;
24859;SDS011;12936;52.006;4.350;2023-08-20T07:28:54;8.57;;;1.60;;
24859;SDS011;12936;52.006;4.350;2023-08-20T07:31:28;9.73;;;1.70;;
24859;SDS011;12936;52.006;4.350;2023-08-20T07:33:59;13.50;;;2.05;;
24859;SDS011;12936;52.006;4.350;2023-08-20T07:36:31;6.00;;;1.63;;
24859;SDS011;12936;52.006;4.350;2023-08-20T07:39:00;13.52;;;3.08;;
24859;SDS011;12936;52.006;4.350;2023-08-20T07:41:30;13.07;;;2.50;;
24859;SDS011;12936;52.006;4.350;2023-08-20T07:43:59;11.32;;;2.05;;
24859;SDS011;12936;52.006;4.350;2023-08-20T07:46:28;14.30;;;2.75;;
24859;SDS011;12936;52.006;4.350;2023-08-20T07:48:56;11.82;;;2.15;;
24859;SDS011;12936;52.006;4.350;2023-08-20T07:51:24;10.13;;;1.80;;
24859;SDS011;12936;52.006;4.350;2023-08-20T07:53:52;7.72;;;1.77;;
24859;SDS011;12936;52.006;4.350;2023-08-20T07:56:20;10.27;;;1.65;;
24859;SDS011;12936;52.006;4.350;2023-08-20T07:58:55;9.93;;;1.90;;
24859;SDS011;12936;52.006;4.350;2023-08-20T08:01:24;9.40;;;1.75;;
24859;SDS011;12936;52.006;4.350;2023-08-20T08:03:52;10.05;;;2.08;;
24859;SDS011;12936;52.006;4.350;2023-08-20T08:06:20;8.60;;;1.67;;
24859;SDS011;12936;52.006;4.350;2023-08-20T08:08:50;10.50;;;1.65;;
24859;SDS011;12936;52.006;4.350;2023-08-20T08:11:18;6.53;;;1.40;;
24859;SDS011;12936;52.006;4.350;2023-08-20T08:13:46;9.65;;;1.60;;
24859;SDS011;12936;52.006;4.350;2023-08-20T08:16:16;11.57;;;1.85;;
24859;SDS011;12936;52.006;4.350;2023-08-20T08:18:46;8.40;;;1.92;;
24859;SDS011;12936;52.006;4.350;2023-08-20T08:21:17;9.05;;;1.80;;
24859;SDS011;12936;52.006;4.350;2023-08-20T08:23:45;8.25;;;2.13;;
24859;SDS011;12936;52.006;4.350;2023-08-20T08:26:14;7.78;;;1.60;;
24859;SDS011;12936;52.006;4.350;2023-08-20T08:28:44;10.13;;;1.80;;
24859;SDS011;12936;52.006;4.350;2023-08-20T08:31:16;13.27;;;2.22;;
24859;SDS011;12936;52.006;4.350;2023-08-20T08:33:44;9.52;;;1.65;;
24859;SDS011;12936;52.006;4.350;2023-08-20T08:36:13;7.82;;;1.55;;
24859;SDS011;12936;52.006;4.350;2023-08-20T08:38:44;11.45;;;1.85;;
24859;SDS011;12936;52.006;4.350;2023-08-20T08:41:13;11.43;;;2.33;;
24859;SDS011;12936;52.006;4.350;2023-08-20T08:43:46;9.88;;;1.98;;
24859;SDS011;12936;52.006;4.350;2023-08-20T08:46:17;5.82;;;1.63;;
24859;SDS011;12936;52.006;4.350;2023-08-20T08:48:46;7.65;;;1.58;;
24859;SDS011;12936;52.006;4.350;2023-08-20T08:51:15;8.00;;;1.35;;
24859;SDS011;12936;52.006;4.350;2023-08-20T08:53:48;7.90;;;1.80;;
24859;SDS011;12936;52.006;4.350;2023-08-20T08:56:18;9.45;;;1.70;;
24859;SDS011;12936;52.006;4.350;2023-08-20T08:58:48;11.52;;;1.75;;
24859;SDS011;12936;52.006;4.350;2023-08-20T09:01:18;9.55;;;1.50;;
24859;SDS011;12936;52.006;4.350;2023-08-20T09:03:47;8.57;;;1.55;;
24859;SDS011;12936;52.006;4.350;2023-08-20T09:06:18;8.55;;;1.50;;
24859;SDS011;12936;52.006;4.350;2023-08-20T09:08:46;9.77;;;1.65;;
24859;SDS011;12936;52.006;4.350;2023-08-20T09:11:18;7.65;;;1.30;;
24859;SDS011;12936;52.006;4.350;2023-08-20T09:13:49;7.20;;;1.50;;
24859;SDS011;12936;52.006;4.350;2023-08-20T09:16:20;9.25;;;1.45;;
24859;SDS011;12936;52.006;4.350;2023-08-20T09:19:00;9.75;;;1.63;;
24859;SDS011;12936;52.006;4.350;2023-08-20T09:21:28;8.07;;;1.40;;
24859;SDS011;12936;52.006;4.350;2023-08-20T09:24:00;11.55;;;1.52;;
24859;SDS011;12936;52.006;4.350;2023-08-20T09:26:29;7.43;;;1.40;;
24859;SDS011;12936;52.006;4.350;2023-08-20T09:28:57;8.23;;;1.70;;
24859;SDS011;12936;52.006;4.350;2023-08-20T09:31:37;6.20;;;1.60;;
24859;SDS011;12936;52.006;4.350;2023-08-20T09:34:12;7.85;;;1.70;;
24859;SDS011;12936;52.006;4.350;2023-08-20T09:36:40;9.75;;;1.50;;
24859;SDS011;12936;52.006;4.350;2023-08-20T09:39:09;8.57;;;1.52;;
24859;SDS011;12936;52.006;4.350;2023-08-20T09:41:38;8.65;;;1.58;;
24859;SDS011;12936;52.006;4.350;2023-08-20T09:44:08;6.85;;;1.40;;
24859;SDS011;12936;52.006;4.350;2023-08-20T09:46:41;4.85;;;1.60;;
24859;SDS011;12936;52.006;4.350;2023-08-20T09:49:10;5.55;;;1.35;;
24859;SDS011;12936;52.006;4.350;2023-08-20T09:51:45;7.68;;;1.63;;
24859;SDS011;12936;52.006;4.350;2023-08-20T09:54:18;4.50;;;1.23;;
24859;SDS011;12936;52.006;4.350;2023-08-20T09:56:55;7.55;;;1.33;;
24859;SDS011;12936;52.006;4.350;2023-08-20T09:59:28;9.13;;;1.42;;
24859;SDS011;12936;52.006;4.350;2023-08-20T10:01:59;4.95;;;1.27;;
24859;SDS011;12936;52.006;4.350;2023-08-20T10:04:31;8.93;;;1.42;;
24859;SDS011;12936;52.006;4.350;2023-08-20T10:07:00;9.13;;;1.50;;
24859;SDS011;12936;52.006;4.350;2023-08-20T10:09:32;6.65;;;1.25;;
24859;SDS011;12936;52.006;4.350;2023-08-20T10:12:03;12.20;;;1.48;;
24859;SDS011;12936;52.006;4.350;2023-08-20T10:14:32;6.22;;;1.40;;
24859;SDS011;12936;52.006;4.350;2023-08-20T10:17:06;6.40;;;1.50;;
24859;SDS011;12936;52.006;4.350;2023-08-20T10:19:36;7.90;;;1.63;;
24859;SDS011;12936;52.006;4.350;2023-08-20T10:22:06;8.57;;;1.20;;
24859;SDS011;12936;52.006;4.350;2023-08-20T10:24:41;10.38;;;1.17;;
24859;SDS011;12936;52.006;4.350;2023-08-20T10:27:22;7.72;;;1.70;;
24859;SDS011;12936;52.006;4.350;2023-08-20T10:29:53;8.00;;;1.73;;
24859;SDS011;12936;52.006;4.350;2023-08-20T10:35:12;7.75;;;1.20;;
24859;SDS011;12936;52.006;4.350;2023-08-20T10:38:00;6.55;;;1.30;;
24859;SDS011;12936;52.006;4.350;2023-08-20T10:43:29;4.50;;;1.05;;
24859;SDS011;12936;52.006;4.350;2023-08-20T10:46:02;6.95;;;1.95;;
24859;SDS011;12936;52.006;4.350;2023-08-20T10:48:41;9.52;;;1.50;;
24859;SDS011;12936;52.006;4.350;2023-08-20T10:51:10;6.70;;;1.30;;
24859;SDS011;12936;52.006;4.350;2023-08-20T10:53:40;6.85;;;1.20;;
24859;SDS011;12936;52.006;4.350;2023-08-20T10:56:10;9.07;;;1.60;;
24859;SDS011;12936;52.006;4.350;2023-08-20T10:58:43;6.30;;;1.80;;
24859;SDS011;12936;52.006;4.350;2023-08-20T11:01:13;8.18;;;1.20;;
24859;SDS011;12936;52.006;4.350;2023-08-20T11:03:52;8.80;;;1.40;;
24859;SDS011;12936;52.006;4.350;2023-08-20T11:06:20;6.68;;;1.33;;
24859;SDS011;12936;52.006;4.350;2023-08-20T11:08:48;8.20;;;1.55;;
24859;SDS011;12936;52.006;4.350;2023-08-20T11:11:20;8.13;;;1.33;;
24859;SDS011;12936;52.006;4.350;2023-08-20T11:13:49;5.82;;;1.15;;
24859;SDS011;12936;52.006;4.350;2023-08-20T11:16:18;5.63;;;1.27;;
24859;SDS011;12936;52.006;4.350;2023-08-20T11:18:47;6.47;;;0.90;;
24859;SDS011;12936;52.006;4.350;2023-08-20T11:21:16;5.30;;;1.30;;
24859;SDS011;12936;52.006;4.350;2023-08-20T11:23:46;6.03;;;0.98;;
24859;SDS011;12936;52.006;4.350;2023-08-20T11:26:17;3.03;;;1.10;;
24859;SDS011;12936;52.006;4.350;2023-08-20T11:29:09;4.03;;;0.70;;
24859;SDS011;12936;52.006;4.350;2023-08-20T11:31:39;2.28;;;0.80;;
24859;SDS011;12936;52.006;4.350;2023-08-20T11:34:08;3.88;;;0.90;;
24859;SDS011;12936;52.006;4.350;2023-08-20T11:36:39;4.07;;;0.80;;
24859;SDS011;12936;52.006;4.350;2023-08-20T11:39:08;3.30;;;0.70;;
24859;SDS011;12936;52.006;4.350;2023-08-20T11:41:37;4.85;;;1.10;;
24859;SDS011;12936;52.006;4.350;2023-08-20T11:44:08;4.32;;;0.90;;
24859;SDS011;12936;52.006;4.350;2023-08-20T11:46:41;3.08;;;0.70;;
24859;SDS011;12936;52.006;4.350;2023-08-20T11:49:10;4.18;;;1.02;;
24859;SDS011;12936;52.006;4.350;2023-08-20T11:51:41;3.15;;;0.75;;
24859;SDS011;12936;52.006;4.350;2023-08-20T11:54:10;5.78;;;1.10;;
24859;SDS011;12936;52.006;4.350;2023-08-20T11:56:46;5.38;;;0.70;;
24859;SDS011;12936;52.006;4.350;2023-08-20T11:59:15;4.13;;;1.10;;
24859;SDS011;12936;52.006;4.350;2023-08-20T12:01:49;6.05;;;1.05;;
24859;SDS011;12936;52.006;4.350;2023-08-20T12:04:18;5.25;;;1.00;;
24859;SDS011;12936;52.006;4.350;2023-08-20T12:06:52;3.63;;;1.00;;
24859;SDS011;12936;52.006;4.350;2023-08-20T12:09:30;3.90;;;0.85;;
24859;SDS011;12936;52.006;4.350;2023-08-20T12:11:58;4.47;;;0.98;;
24859;SDS011;12936;52.006;4.350;2023-08-20T12:14:27;5.68;;;0.90;;
24859;SDS011;12936;52.006;4.350;2023-08-20T12:16:55;3.65;;;1.10;;
24859;SDS011;12936;52.006;4.350;2023-08-20T12:19:24;5.28;;;1.13;;
24859;SDS011;12936;52.006;4.350;2023-08-20T12:21:53;6.28;;;1.23;;
24859;SDS011;12936;52.006;4.350;2023-08-20T12:24:21;5.82;;;1.00;;
24859;SDS011;12936;52.006;4.350;2023-08-20T12:26:50;4.03;;;1.20;;
24859;SDS011;12936;52.006;4.350;2023-08-20T12:29:19;5.05;;;0.90;;
24859;SDS011;12936;52.006;4.350;2023-08-20T12:31:47;6.78;;;1.20;;
24859;SDS011;12936;52.006;4.350;2023-08-20T12:34:15;7.22;;;1.27;;
24859;SDS011;12936;52.006;4.350;2023-08-20T12:36:44;6.93;;;1.77;;
24859;SDS011;12936;52.006;4.350;2023-08-20T12:39:14;5.03;;;1.17;;
24859;SDS011;12936;52.006;4.350;2023-08-20T12:41:44;7.93;;;1.70;;
24859;SDS011;12936;52.006;4.350;2023-08-20T12:44:12;10.25;;;1.50;;
24859;SDS011;12936;52.006;4.350;2023-08-20T12:46:41;5.43;;;1.40;;
24859;SDS011;12936;52.006;4.350;2023-08-20T12:49:10;5.07;;;1.38;;
24859;SDS011;12936;52.006;4.350;2023-08-20T12:51:39;6.68;;;1.90;;
24859;SDS011;12936;52.006;4.350;2023-08-20T12:54:07;4.88;;;1.25;;
24859;SDS011;12936;52.006;4.350;2023-08-20T12:56:39;5.35;;;1.48;;
24859;SDS011;12936;52.006;4.350;2023-08-20T12:59:09;5.13;;;1.23;;
24859;SDS011;12936;52.006;4.350;2023-08-20T13:01:37;4.22;;;1.10;;
24859;SDS011;12936;52.006;4.350;2023-08-20T13:04:05;5.95;;;1.33;;
24859;SDS011;12936;52.006;4.350;2023-08-20T13:06:36;5.07;;;1.13;;
24859;SDS011;12936;52.006;4.350;2023-08-20T13:09:05;5.57;;;0.98;;
24859;SDS011;12936;52.006;4.350;2023-08-20T13:11:36;5.60;;;0.95;;
24859;SDS011;12936;52.006;4.350;2023-08-20T13:14:10;4.38;;;1.20;;
24859;SDS011;12936;52.006;4.350;2023-08-20T13:16:39;6.97;;;1.20;;
24859;SDS011;12936;52.006;4.350;2023-08-20T13:19:09;4.75;;;0.88;;
24859;SDS011;12936;52.006;4.350;2023-08-20T13:21:38;6.07;;;1.10;;
24859;SDS011;12936;52.006;4.350;2023-08-20T13:24:08;4.50;;;1.10;;
24859;SDS011;12936;52.006;4.350;2023-08-20T13:26:37;6.07;;;1.27;;
24859;SDS011;12936;52.006;4.350;2023-08-20T13:29:06;3.38;;;0.88;;
24859;SDS011;12936;52.006;4.350;2023-08-20T13:31:34;5.53;;;1.25;;
24859;SDS011;12936;52.006;4.350;2023-08-20T13:34:05;3.90;;;1.10;;
24859;SDS011;12936;52.006;4.350;2023-08-20T13:36:34;4.72;;;1.00;;
24859;SDS011;12936;52.006;4.350;2023-08-20T13:39:05;5.22;;;0.90;;
24859;SDS011;12936;52.006;4.350;2023-08-20T13:41:45;3.85;;;0.90;;
24859;SDS011;12936;52.006;4.350;2023-08-20T13:44:19;6.05;;;1.00;;
24859;SDS011;12936;52.006;4.350;2023-08-20T13:46:47;4.53;;;1.13;;
24859;SDS011;12936;52.006;4.350;2023-08-20T13:49:15;5.13;;;1.00;;
24859;SDS011;12936;52.006;4.350;2023-08-20T13:51:44;4.32;;;0.90;;
24859;SDS011;12936;52.006;4.350;2023-08-20T13:54:15;7.82;;;1.20;;
24859;SDS011;12936;52.006;4.350;2023-08-20T13:56:47;5.18;;;1.20;;
24859;SDS011;12936;52.006;4.350;2023-08-20T13:59:22;5.38;;;1.38;;
24859;SDS011;12936;52.006;4.350;2023-08-20T14:01:50;3.22;;;0.80;;
24859;SDS011;12936;52.006;4.350;2023-08-20T14:04:18;4.82;;;0.95;;
24859;SDS011;12936;52.006;4.350;2023-08-20T14:06:46;6.78;;;1.00;;
24859;SDS011;12936;52.006;4.350;2023-08-20T14:09:15;6.30;;;0.93;;
24859;SDS011;12936;52.006;4.350;2023-08-20T14:11:45;3.58;;;0.82;;
24859;SDS011;12936;52.006;4.350;2023-08-20T14:14:14;4.68;;;1.08;;
24859;SDS011;12936;52.006;4.350;2023-08-20T14:16:45;5.20;;;1.23;;
24859;SDS011;12936;52.006;4.350;2023-08-20T14:19:14;4.00;;;1.02;;
24859;SDS011;12936;52.006;4.350;2023-08-20T14:21:42;2.38;;;0.85;;
24859;SDS011;12936;52.006;4.350;2023-08-20T14:24:10;3.30;;;0.80;;
24859;SDS011;12936;52.006;4.350;2023-08-20T14:26:39;2.67;;;0.93;;
24859;SDS011;12936;52.006;4.350;2023-08-20T14:29:08;2.70;;;0.88;;
24859;SDS011;12936;52.006;4.350;2023-08-20T14:31:40;3.70;;;0.88;;
24859;SDS011;12936;52.006;4.350;2023-08-20T14:34:12;6.10;;;0.80;;
24859;SDS011;12936;52.006;4.350;2023-08-20T14:36:45;5.72;;;0.95;;
24859;SDS011;12936;52.006;4.350;2023-08-20T14:39:16;6.47;;;1.48;;
24859;SDS011;12936;52.006;4.350;2023-08-20T14:41:44;5.47;;;1.10;;
24859;SDS011;12936;52.006;4.350;2023-08-20T14:44:15;4.80;;;1.10;;
24859;SDS011;12936;52.006;4.350;2023-08-20T14:46:43;5.25;;;1.10;;
24859;SDS011;12936;52.006;4.350;2023-08-20T14:49:13;7.05;;;1.17;;
24859;SDS011;12936;52.006;4.350;2023-08-20T14:51:42;3.25;;;1.08;;
24859;SDS011;12936;52.006;4.350;2023-08-20T14:54:10;4.30;;;1.13;;
24859;SDS011;12936;52.006;4.350;2023-08-20T14:56:38;2.67;;;1.10;;
24859;SDS011;12936;52.006;4.350;2023-08-20T14:59:14;4.60;;;1.02;;
24859;SDS011;12936;52.006;4.350;2023-08-20T15:01:52;4.72;;;1.15;;
24859;SDS011;12936;52.006;4.350;2023-08-20T15:04:22;3.67;;;0.80;;
24859;SDS011;12936;52.006;4.350;2023-08-20T15:06:52;4.72;;;0.90;;
24859;SDS011;12936;52.006;4.350;2023-08-20T15:09:20;4.63;;;0.90;;
24859;SDS011;12936;52.006;4.350;2023-08-20T15:11:49;2.53;;;0.75;;
24859;SDS011;12936;52.006;4.350;2023-08-20T15:14:16;3.15;;;0.93;;
24859;SDS011;12936;52.006;4.350;2023-08-20T15:16:45;3.00;;;0.90;;
24859;SDS011;12936;52.006;4.350;2023-08-20T15:19:14;3.63;;;0.88;;
24859;SDS011;12936;52.006;4.350;2023-08-20T15:21:44;3.15;;;1.10;;
24859;SDS011;12936;52.006;4.350;2023-08-20T15:24:12;3.05;;;0.90;;